sensor_id;sensor_type;location;lat;lon;timestamp;P1;durP1;ratioP1;P2;durP2;ratioP2
40459;SDS011;26164;51.138;16.952;2023-05-01T00:02:14;41.22;;;18.45;;
40459;SDS011;26164;51.138;16.952;2023-05-01T00:04:40;39.78;;;19.75;;
40459;SDS011;26164;51.138;16.952;2023-05-01T00:07:05;34.65;;;17.98;;
40459;SDS011;26164;51.138;16.952;2023-05-01T00:09:31;40.55;;;19.13;;
40459;SDS011;26164;51.138;16.952;2023-05-01T00:11:57;38.22;;;17.30;;
40459;SDS011;26164;51.138;16.952;2023-05-01T00:14:23;33.92;;;17.70;;
40459;SDS011;26164;51.138;16.952;2023-05-01T00:16:48;37.80;;;18.95;;
40459;SDS011;26164;51.138;16.952;2023-05-01T00:19:14;44.15;;;19.88;;
40459;SDS011;26164;51.138;16.952;2023-05-01T00:21:44;39.72;;;20.05;;
40459;SDS011;26164;51.138;16.952;2023-05-01T00:24:10;41.15;;;19.98;;
40459;SDS011;26164;51.138;16.952;2023-05-01T00:26:35;35.90;;;19.23;;
40459;SDS011;26164;51.138;16.952;2023-05-01T00:29:02;42.10;;;19.67;;
40459;SDS011;26164;51.138;16.952;2023-05-01T00:31:28;40.53;;;21.60;;
40459;SDS011;26164;51.138;16.952;2023-05-01T00:33:54;42.28;;;20.00;;
40459;SDS011;26164;51.138;16.952;2023-05-01T00:36:20;40.28;;;18.90;;
40459;SDS011;26164;51.138;16.952;2023-05-01T00:38:45;40.33;;;20.70;;
40459;SDS011;26164;51.138;16.952;2023-05-01T00:41:11;43.40;;;22.52;;
40459;SDS011;26164;51.138;16.952;2023-05-01T00:43:37;32.70;;;18.15;;
40459;SDS011;26164;51.138;16.952;2023-05-01T00:46:02;41.35;;;20.27;;
40459;SDS011;26164;51.138;16.952;2023-05-01T00:48:28;39.42;;;18.77;;
40459;SDS011;26164;51.138;16.952;2023-05-01T00:50:54;37.03;;;16.65;;
40459;SDS011;26164;51.138;16.952;2023-05-01T00:53:20;29.60;;;14.60;;
40459;SDS011;26164;51.138;16.952;2023-05-01T00:55:46;30.45;;;15.63;;
40459;SDS011;26164;51.138;16.952;2023-05-01T00:58:13;33.53;;;13.80;;
40459;SDS011;26164;51.138;16.952;2023-05-01T01:00:40;28.48;;;14.68;;
40459;SDS011;26164;51.138;16.952;2023-05-01T01:03:06;37.88;;;17.38;;
40459;SDS011;26164;51.138;16.952;2023-05-01T01:05:31;27.35;;;14.60;;
40459;SDS011;26164;51.138;16.952;2023-05-01T01:08:04;28.75;;;13.63;;
40459;SDS011;26164;51.138;16.952;2023-05-01T01:10:49;30.33;;;14.70;;
40459;SDS011;26164;51.138;16.952;2023-05-01T01:13:19;29.08;;;14.10;;
40459;SDS011;26164;51.138;16.952;2023-05-01T01:15:49;33.00;;;14.65;;
40459;SDS011;26164;51.138;16.952;2023-05-01T01:18:22;32.65;;;15.40;;
40459;SDS011;26164;51.138;16.952;2023-05-01T01:21:11;27.13;;;14.05;;
40459;SDS011;26164;51.138;16.952;2023-05-01T01:26:27;33.50;;;15.77;;
40459;SDS011;26164;51.138;16.952;2023-05-01T01:29:08;29.88;;;15.00;;
40459;SDS011;26164;51.138;16.952;2023-05-01T01:36:59;33.85;;;15.98;;
40459;SDS011;26164;51.138;16.952;2023-05-01T01:41:51;39.00;;;17.58;;
40459;SDS011;26164;51.138;16.952;2023-05-01T01:46:45;31.90;;;15.98;;
40459;SDS011;26164;51.138;16.952;2023-05-01T01:49:15;31.85;;;17.15;;
40459;SDS011;26164;51.138;16.952;2023-05-01T01:51:41;34.78;;;15.70;;
40459;SDS011;26164;51.138;16.952;2023-05-01T01:54:10;37.90;;;15.68;;
40459;SDS011;26164;51.138;16.952;2023-05-01T01:56:37;32.08;;;16.25;;
40459;SDS011;26164;51.138;16.952;2023-05-01T01:59:05;33.20;;;16.52;;
40459;SDS011;26164;51.138;16.952;2023-05-01T02:01:31;34.53;;;17.35;;
40459;SDS011;26164;51.138;16.952;2023-05-01T02:03:58;34.63;;;17.27;;
40459;SDS011;26164;51.138;16.952;2023-05-01T02:06:25;36.90;;;17.25;;
40459;SDS011;26164;51.138;16.952;2023-05-01T02:08:51;33.25;;;17.35;;
40459;SDS011;26164;51.138;16.952;2023-05-01T02:11:18;38.85;;;18.25;;
40459;SDS011;26164;51.138;16.952;2023-05-01T02:13:46;37.78;;;19.45;;
40459;SDS011;26164;51.138;16.952;2023-05-01T02:16:11;37.20;;;18.25;;
40459;SDS011;26164;51.138;16.952;2023-05-01T02:18:38;37.67;;;18.70;;
40459;SDS011;26164;51.138;16.952;2023-05-01T02:21:04;33.08;;;17.83;;
40459;SDS011;26164;51.138;16.952;2023-05-01T02:23:34;35.75;;;18.42;;
40459;SDS011;26164;51.138;16.952;2023-05-01T02:26:00;38.55;;;19.48;;
40459;SDS011;26164;51.138;16.952;2023-05-01T02:28:28;38.55;;;19.58;;
40459;SDS011;26164;51.138;16.952;2023-05-01T02:30:54;43.22;;;20.92;;
40459;SDS011;26164;51.138;16.952;2023-05-01T02:33:19;35.53;;;19.10;;
40459;SDS011;26164;51.138;16.952;2023-05-01T02:35:45;46.30;;;22.00;;
40459;SDS011;26164;51.138;16.952;2023-05-01T02:38:16;38.88;;;20.40;;
40459;SDS011;26164;51.138;16.952;2023-05-01T02:40:44;36.67;;;19.67;;
40459;SDS011;26164;51.138;16.952;2023-05-01T02:43:11;33.67;;;18.70;;
40459;SDS011;26164;51.138;16.952;2023-05-01T02:45:38;40.88;;;21.05;;
40459;SDS011;26164;51.138;16.952;2023-05-01T02:48:05;41.17;;;20.70;;
40459;SDS011;26164;51.138;16.952;2023-05-01T02:50:32;32.55;;;18.67;;
40459;SDS011;26164;51.138;16.952;2023-05-01T02:52:59;38.35;;;20.25;;
40459;SDS011;26164;51.138;16.952;2023-05-01T02:55:35;44.75;;;21.63;;
40459;SDS011;26164;51.138;16.952;2023-05-01T02:58:01;41.50;;;22.23;;
40459;SDS011;26164;51.138;16.952;2023-05-01T03:00:27;43.28;;;23.20;;
40459;SDS011;26164;51.138;16.952;2023-05-01T03:02:53;47.72;;;23.83;;
40459;SDS011;26164;51.138;16.952;2023-05-01T03:05:18;43.55;;;21.83;;
40459;SDS011;26164;51.138;16.952;2023-05-01T03:07:44;43.85;;;25.50;;
40459;SDS011;26164;51.138;16.952;2023-05-01T03:10:10;48.33;;;27.65;;
40459;SDS011;26164;51.138;16.952;2023-05-01T03:12:36;49.17;;;27.42;;
40459;SDS011;26164;51.138;16.952;2023-05-01T03:15:01;51.25;;;27.27;;
40459;SDS011;26164;51.138;16.952;2023-05-01T03:17:29;49.47;;;27.02;;
40459;SDS011;26164;51.138;16.952;2023-05-01T03:19:55;59.65;;;28.70;;
40459;SDS011;26164;51.138;16.952;2023-05-01T03:22:21;51.17;;;26.58;;
40459;SDS011;26164;51.138;16.952;2023-05-01T03:24:46;47.90;;;24.70;;
40459;SDS011;26164;51.138;16.952;2023-05-01T03:27:12;49.88;;;24.85;;
40459;SDS011;26164;51.138;16.952;2023-05-01T03:29:38;51.35;;;25.55;;
40459;SDS011;26164;51.138;16.952;2023-05-01T03:32:04;55.88;;;26.75;;
40459;SDS011;26164;51.138;16.952;2023-05-01T03:34:29;48.78;;;25.85;;
40459;SDS011;26164;51.138;16.952;2023-05-01T03:36:55;55.10;;;27.08;;
40459;SDS011;26164;51.138;16.952;2023-05-01T03:39:22;49.17;;;27.15;;
40459;SDS011;26164;51.138;16.952;2023-05-01T03:42:06;49.95;;;25.15;;
40459;SDS011;26164;51.138;16.952;2023-05-01T03:44:37;52.25;;;25.90;;
40459;SDS011;26164;51.138;16.952;2023-05-01T03:47:03;50.42;;;26.35;;
40459;SDS011;26164;51.138;16.952;2023-05-01T03:49:29;50.22;;;26.27;;
40459;SDS011;26164;51.138;16.952;2023-05-01T03:51:55;57.13;;;26.00;;
40459;SDS011;26164;51.138;16.952;2023-05-01T03:54:21;50.08;;;25.75;;
40459;SDS011;26164;51.138;16.952;2023-05-01T03:57:00;48.53;;;26.33;;
40459;SDS011;26164;51.138;16.952;2023-05-01T03:59:25;47.60;;;24.70;;
40459;SDS011;26164;51.138;16.952;2023-05-01T04:01:52;48.80;;;23.65;;
40459;SDS011;26164;51.138;16.952;2023-05-01T04:04:17;43.58;;;24.20;;
40459;SDS011;26164;51.138;16.952;2023-05-01T04:06:49;39.08;;;21.88;;
40459;SDS011;26164;51.138;16.952;2023-05-01T04:09:14;43.88;;;21.52;;
40459;SDS011;26164;51.138;16.952;2023-05-01T04:11:40;45.50;;;21.23;;
40459;SDS011;26164;51.138;16.952;2023-05-01T04:14:06;41.10;;;21.05;;
40459;SDS011;26164;51.138;16.952;2023-05-01T04:16:33;37.25;;;19.77;;
40459;SDS011;26164;51.138;16.952;2023-05-01T04:19:00;36.75;;;19.73;;
40459;SDS011;26164;51.138;16.952;2023-05-01T04:21:26;39.05;;;18.85;;
40459;SDS011;26164;51.138;16.952;2023-05-01T04:23:52;38.83;;;19.92;;
40459;SDS011;26164;51.138;16.952;2023-05-01T04:26:18;37.67;;;19.75;;
40459;SDS011;26164;51.138;16.952;2023-05-01T04:28:44;35.88;;;19.15;;
40459;SDS011;26164;51.138;16.952;2023-05-01T04:31:12;34.88;;;18.85;;
40459;SDS011;26164;51.138;16.952;2023-05-01T04:33:38;31.77;;;17.67;;
40459;SDS011;26164;51.138;16.952;2023-05-01T04:36:04;30.85;;;17.98;;
40459;SDS011;26164;51.138;16.952;2023-05-01T04:38:31;31.83;;;17.92;;
40459;SDS011;26164;51.138;16.952;2023-05-01T04:40:58;34.30;;;17.95;;
40459;SDS011;26164;51.138;16.952;2023-05-01T04:43:23;28.83;;;16.48;;
40459;SDS011;26164;51.138;16.952;2023-05-01T04:45:49;34.20;;;16.55;;
40459;SDS011;26164;51.138;16.952;2023-05-01T04:48:15;34.00;;;18.08;;
40459;SDS011;26164;51.138;16.952;2023-05-01T04:50:41;33.08;;;17.73;;
40459;SDS011;26164;51.138;16.952;2023-05-01T04:53:07;33.08;;;17.90;;
40459;SDS011;26164;51.138;16.952;2023-05-01T04:55:34;31.58;;;18.67;;
40459;SDS011;26164;51.138;16.952;2023-05-01T04:58:04;34.22;;;18.60;;
40459;SDS011;26164;51.138;16.952;2023-05-01T05:00:33;38.17;;;19.13;;
40459;SDS011;26164;51.138;16.952;2023-05-01T05:02:59;33.85;;;18.10;;
40459;SDS011;26164;51.138;16.952;2023-05-01T05:05:25;32.08;;;18.58;;
40459;SDS011;26164;51.138;16.952;2023-05-01T05:07:51;39.83;;;18.48;;
40459;SDS011;26164;51.138;16.952;2023-05-01T05:10:33;35.70;;;17.95;;
40459;SDS011;26164;51.138;16.952;2023-05-01T05:13:27;39.72;;;18.05;;
40459;SDS011;26164;51.138;16.952;2023-05-01T05:15:59;36.25;;;18.17;;
40459;SDS011;26164;51.138;16.952;2023-05-01T05:18:25;34.55;;;17.52;;
40459;SDS011;26164;51.138;16.952;2023-05-01T05:20:50;36.30;;;18.73;;
40459;SDS011;26164;51.138;16.952;2023-05-01T05:23:16;37.40;;;18.38;;
40459;SDS011;26164;51.138;16.952;2023-05-01T05:25:42;34.35;;;18.30;;
40459;SDS011;26164;51.138;16.952;2023-05-01T05:28:08;32.33;;;17.85;;
40459;SDS011;26164;51.138;16.952;2023-05-01T05:30:34;34.05;;;18.05;;
40459;SDS011;26164;51.138;16.952;2023-05-01T05:33:02;36.22;;;17.42;;
40459;SDS011;26164;51.138;16.952;2023-05-01T05:35:30;31.98;;;16.48;;
40459;SDS011;26164;51.138;16.952;2023-05-01T05:37:55;30.95;;;17.35;;
40459;SDS011;26164;51.138;16.952;2023-05-01T05:40:23;30.35;;;16.05;;
40459;SDS011;26164;51.138;16.952;2023-05-01T05:42:53;31.90;;;15.63;;
40459;SDS011;26164;51.138;16.952;2023-05-01T05:45:20;31.60;;;16.45;;
40459;SDS011;26164;51.138;16.952;2023-05-01T05:47:47;33.13;;;15.85;;
40459;SDS011;26164;51.138;16.952;2023-05-01T05:50:13;29.13;;;14.88;;
40459;SDS011;26164;51.138;16.952;2023-05-01T05:52:40;27.55;;;14.93;;
40459;SDS011;26164;51.138;16.952;2023-05-01T05:55:07;31.08;;;13.93;;
40459;SDS011;26164;51.138;16.952;2023-05-01T05:57:35;29.85;;;14.35;;
40459;SDS011;26164;51.138;16.952;2023-05-01T06:00:05;27.13;;;13.57;;
40459;SDS011;26164;51.138;16.952;2023-05-01T06:02:46;27.02;;;13.45;;
40459;SDS011;26164;51.138;16.952;2023-05-01T06:05:13;28.05;;;14.05;;
40459;SDS011;26164;51.138;16.952;2023-05-01T06:07:40;28.42;;;13.20;;
40459;SDS011;26164;51.138;16.952;2023-05-01T06:10:07;26.67;;;11.95;;
40459;SDS011;26164;51.138;16.952;2023-05-01T06:12:32;20.63;;;11.98;;
40459;SDS011;26164;51.138;16.952;2023-05-01T06:14:58;22.08;;;11.07;;
40459;SDS011;26164;51.138;16.952;2023-05-01T06:17:25;22.40;;;10.43;;
40459;SDS011;26164;51.138;16.952;2023-05-01T06:19:51;23.33;;;11.18;;
40459;SDS011;26164;51.138;16.952;2023-05-01T06:22:18;20.35;;;9.60;;
40459;SDS011;26164;51.138;16.952;2023-05-01T06:24:58;17.25;;;8.45;;
40459;SDS011;26164;51.138;16.952;2023-05-01T06:27:25;18.15;;;8.07;;
40459;SDS011;26164;51.138;16.952;2023-05-01T06:29:51;18.38;;;7.57;;
40459;SDS011;26164;51.138;16.952;2023-05-01T06:32:17;14.45;;;7.20;;
40459;SDS011;26164;51.138;16.952;2023-05-01T06:34:44;15.23;;;7.32;;
40459;SDS011;26164;51.138;16.952;2023-05-01T06:37:09;18.55;;;6.57;;
40459;SDS011;26164;51.138;16.952;2023-05-01T06:39:35;14.02;;;6.45;;
40459;SDS011;26164;51.138;16.952;2023-05-01T06:42:01;17.67;;;6.35;;
40459;SDS011;26164;51.138;16.952;2023-05-01T06:44:37;16.10;;;7.18;;
40459;SDS011;26164;51.138;16.952;2023-05-01T06:47:02;13.27;;;6.53;;
40459;SDS011;26164;51.138;16.952;2023-05-01T06:49:28;15.77;;;6.38;;
40459;SDS011;26164;51.138;16.952;2023-05-01T06:51:53;17.73;;;6.55;;
40459;SDS011;26164;51.138;16.952;2023-05-01T06:54:19;13.88;;;6.32;;
40459;SDS011;26164;51.138;16.952;2023-05-01T06:56:45;16.52;;;6.82;;
40459;SDS011;26164;51.138;16.952;2023-05-01T06:59:14;12.30;;;6.78;;
40459;SDS011;26164;51.138;16.952;2023-05-01T07:01:45;16.98;;;6.57;;
40459;SDS011;26164;51.138;16.952;2023-05-01T07:04:12;17.05;;;6.10;;
40459;SDS011;26164;51.138;16.952;2023-05-01T07:06:38;13.30;;;6.40;;
40459;SDS011;26164;51.138;16.952;2023-05-01T07:09:04;14.98;;;5.78;;
40459;SDS011;26164;51.138;16.952;2023-05-01T07:11:32;13.63;;;5.88;;
40459;SDS011;26164;51.138;16.952;2023-05-01T07:14:02;14.20;;;6.22;;
40459;SDS011;26164;51.138;16.952;2023-05-01T07:16:29;13.43;;;6.03;;
40459;SDS011;26164;51.138;16.952;2023-05-01T07:18:55;12.13;;;6.18;;
40459;SDS011;26164;51.138;16.952;2023-05-01T07:21:21;11.57;;;5.80;;
40459;SDS011;26164;51.138;16.952;2023-05-01T07:23:47;16.35;;;7.20;;
40459;SDS011;26164;51.138;16.952;2023-05-01T07:26:13;14.35;;;6.30;;
40459;SDS011;26164;51.138;16.952;2023-05-01T07:28:38;12.60;;;6.15;;
40459;SDS011;26164;51.138;16.952;2023-05-01T07:31:05;13.70;;;6.50;;
40459;SDS011;26164;51.138;16.952;2023-05-01T07:33:31;13.70;;;5.75;;
40459;SDS011;26164;51.138;16.952;2023-05-01T07:35:57;14.00;;;6.15;;
40459;SDS011;26164;51.138;16.952;2023-05-01T07:38:23;15.82;;;6.20;;
40459;SDS011;26164;51.138;16.952;2023-05-01T07:40:53;15.32;;;5.90;;
40459;SDS011;26164;51.138;16.952;2023-05-01T07:43:19;12.70;;;5.82;;
40459;SDS011;26164;51.138;16.952;2023-05-01T07:45:54;16.27;;;6.13;;
40459;SDS011;26164;51.138;16.952;2023-05-01T07:48:21;13.88;;;5.70;;
40459;SDS011;26164;51.138;16.952;2023-05-01T07:50:47;12.05;;;5.75;;
40459;SDS011;26164;51.138;16.952;2023-05-01T07:53:13;12.45;;;5.50;;
40459;SDS011;26164;51.138;16.952;2023-05-01T07:55:38;13.65;;;5.47;;
40459;SDS011;26164;51.138;16.952;2023-05-01T07:58:05;10.63;;;5.78;;
40459;SDS011;26164;51.138;16.952;2023-05-01T08:00:30;8.85;;;3.72;;
40459;SDS011;26164;51.138;16.952;2023-05-01T08:02:58;13.85;;;5.65;;
40459;SDS011;26164;51.138;16.952;2023-05-01T08:05:23;9.50;;;4.63;;
40459;SDS011;26164;51.138;16.952;2023-05-01T08:07:49;14.18;;;5.35;;
40459;SDS011;26164;51.138;16.952;2023-05-01T08:10:15;15.23;;;5.90;;
40459;SDS011;26164;51.138;16.952;2023-05-01T08:12:41;13.43;;;4.55;;
40459;SDS011;26164;51.138;16.952;2023-05-01T08:15:06;14.85;;;5.25;;
40459;SDS011;26164;51.138;16.952;2023-05-01T08:17:36;13.52;;;4.82;;
40459;SDS011;26164;51.138;16.952;2023-05-01T08:20:01;9.95;;;4.95;;
40459;SDS011;26164;51.138;16.952;2023-05-01T08:22:27;8.43;;;4.22;;
40459;SDS011;26164;51.138;16.952;2023-05-01T08:24:53;14.60;;;4.40;;
40459;SDS011;26164;51.138;16.952;2023-05-01T08:27:19;10.23;;;4.57;;
40459;SDS011;26164;51.138;16.952;2023-05-01T08:29:45;12.52;;;4.43;;
40459;SDS011;26164;51.138;16.952;2023-05-01T08:32:11;13.13;;;5.38;;
40459;SDS011;26164;51.138;16.952;2023-05-01T08:34:40;11.75;;;4.32;;
40459;SDS011;26164;51.138;16.952;2023-05-01T08:37:06;11.65;;;4.63;;
40459;SDS011;26164;51.138;16.952;2023-05-01T08:39:31;10.82;;;4.10;;
40459;SDS011;26164;51.138;16.952;2023-05-01T08:41:58;10.40;;;4.30;;
40459;SDS011;26164;51.138;16.952;2023-05-01T08:44:27;10.35;;;3.95;;
40459;SDS011;26164;51.138;16.952;2023-05-01T08:49:22;12.88;;;4.50;;
40459;SDS011;26164;51.138;16.952;2023-05-01T08:51:50;9.43;;;4.55;;
40459;SDS011;26164;51.138;16.952;2023-05-01T08:54:18;8.90;;;4.10;;
40459;SDS011;26164;51.138;16.952;2023-05-01T08:56:47;11.43;;;3.90;;
40459;SDS011;26164;51.138;16.952;2023-05-01T08:59:14;18.92;;;4.40;;
40459;SDS011;26164;51.138;16.952;2023-05-01T09:01:42;11.05;;;4.18;;
40459;SDS011;26164;51.138;16.952;2023-05-01T09:04:09;12.95;;;4.22;;
40459;SDS011;26164;51.138;16.952;2023-05-01T09:06:36;9.02;;;3.90;;
40459;SDS011;26164;51.138;16.952;2023-05-01T09:09:03;9.02;;;3.92;;
40459;SDS011;26164;51.138;16.952;2023-05-01T09:11:29;8.15;;;3.70;;
40459;SDS011;26164;51.138;16.952;2023-05-01T09:13:55;10.50;;;3.88;;
40459;SDS011;26164;51.138;16.952;2023-05-01T09:16:21;11.25;;;5.07;;
40459;SDS011;26164;51.138;16.952;2023-05-01T09:18:47;11.95;;;5.03;;
40459;SDS011;26164;51.138;16.952;2023-05-01T09:21:14;11.75;;;5.03;;
40459;SDS011;26164;51.138;16.952;2023-05-01T09:23:39;10.10;;;5.00;;
40459;SDS011;26164;51.138;16.952;2023-05-01T09:26:06;11.43;;;4.55;;
40459;SDS011;26164;51.138;16.952;2023-05-01T09:28:46;14.43;;;4.68;;
40459;SDS011;26164;51.138;16.952;2023-05-01T09:31:23;13.25;;;4.13;;
40459;SDS011;26164;51.138;16.952;2023-05-01T09:34:01;9.02;;;3.80;;
40459;SDS011;26164;51.138;16.952;2023-05-01T09:36:32;11.10;;;4.32;;
40459;SDS011;26164;51.138;16.952;2023-05-01T09:39:03;12.10;;;4.55;;
40459;SDS011;26164;51.138;16.952;2023-05-01T09:41:33;12.98;;;4.53;;
40459;SDS011;26164;51.138;16.952;2023-05-01T09:43:59;10.65;;;3.95;;
40459;SDS011;26164;51.138;16.952;2023-05-01T09:46:26;13.10;;;4.80;;
40459;SDS011;26164;51.138;16.952;2023-05-01T09:48:54;8.32;;;4.10;;
40459;SDS011;26164;51.138;16.952;2023-05-01T09:51:22;9.23;;;3.67;;
40459;SDS011;26164;51.138;16.952;2023-05-01T09:53:48;8.75;;;4.18;;
40459;SDS011;26164;51.138;16.952;2023-05-01T09:56:14;8.00;;;4.35;;
40459;SDS011;26164;51.138;16.952;2023-05-01T09:58:39;8.10;;;3.78;;
40459;SDS011;26164;51.138;16.952;2023-05-01T10:01:06;11.73;;;4.65;;
40459;SDS011;26164;51.138;16.952;2023-05-01T10:03:34;12.35;;;3.58;;
40459;SDS011;26164;51.138;16.952;2023-05-01T10:06:00;12.20;;;4.10;;
40459;SDS011;26164;51.138;16.952;2023-05-01T10:08:46;10.93;;;4.20;;
40459;SDS011;26164;51.138;16.952;2023-05-01T10:11:16;13.88;;;4.45;;
40459;SDS011;26164;51.138;16.952;2023-05-01T10:13:42;9.02;;;4.03;;
40459;SDS011;26164;51.138;16.952;2023-05-01T10:16:26;14.75;;;4.10;;
40459;SDS011;26164;51.138;16.952;2023-05-01T10:18:53;11.53;;;3.80;;
40459;SDS011;26164;51.138;16.952;2023-05-01T10:21:19;11.25;;;4.32;;
40459;SDS011;26164;51.138;16.952;2023-05-01T10:23:45;10.43;;;4.60;;
40459;SDS011;26164;51.138;16.952;2023-05-01T10:26:12;10.32;;;4.88;;
40459;SDS011;26164;51.138;16.952;2023-05-01T10:28:38;14.40;;;4.20;;
40459;SDS011;26164;51.138;16.952;2023-05-01T10:31:05;12.07;;;4.90;;
40459;SDS011;26164;51.138;16.952;2023-05-01T10:33:31;13.90;;;5.28;;
40459;SDS011;26164;51.138;16.952;2023-05-01T10:35:58;15.38;;;5.00;;
40459;SDS011;26164;51.138;16.952;2023-05-01T10:38:25;12.20;;;4.65;;
40459;SDS011;26164;51.138;16.952;2023-05-01T10:40:52;10.45;;;4.20;;
40459;SDS011;26164;51.138;16.952;2023-05-01T10:43:28;9.85;;;4.32;;
40459;SDS011;26164;51.138;16.952;2023-05-01T10:46:39;9.02;;;4.05;;
40459;SDS011;26164;51.138;16.952;2023-05-01T10:53:39;6.47;;;3.65;;
40459;SDS011;26164;51.138;16.952;2023-05-01T10:58:59;15.23;;;4.10;;
40459;SDS011;26164;51.138;16.952;2023-05-01T11:01:38;13.38;;;4.00;;
40459;SDS011;26164;51.138;16.952;2023-05-01T11:04:05;9.07;;;3.30;;
40459;SDS011;26164;51.138;16.952;2023-05-01T11:06:35;11.25;;;3.83;;
40459;SDS011;26164;51.138;16.952;2023-05-01T11:09:02;7.95;;;3.60;;
40459;SDS011;26164;51.138;16.952;2023-05-01T11:11:47;10.75;;;3.92;;
40459;SDS011;26164;51.138;16.952;2023-05-01T11:14:14;8.35;;;3.92;;
40459;SDS011;26164;51.138;16.952;2023-05-01T11:16:43;12.02;;;4.50;;
40459;SDS011;26164;51.138;16.952;2023-05-01T11:21:46;7.63;;;3.25;;
40459;SDS011;26164;51.138;16.952;2023-05-01T11:24:13;11.35;;;3.85;;
40459;SDS011;26164;51.138;16.952;2023-05-01T11:26:40;6.95;;;3.58;;
40459;SDS011;26164;51.138;16.952;2023-05-01T11:29:06;11.55;;;3.45;;
40459;SDS011;26164;51.138;16.952;2023-05-01T11:31:35;7.57;;;3.60;;
40459;SDS011;26164;51.138;16.952;2023-05-01T11:34:00;7.63;;;3.63;;
40459;SDS011;26164;51.138;16.952;2023-05-01T11:36:28;8.90;;;3.53;;
40459;SDS011;26164;51.138;16.952;2023-05-01T11:41:22;9.73;;;3.70;;
40459;SDS011;26164;51.138;16.952;2023-05-01T11:43:52;13.20;;;3.88;;
40459;SDS011;26164;51.138;16.952;2023-05-01T11:46:22;8.93;;;4.15;;
40459;SDS011;26164;51.138;16.952;2023-05-01T11:48:49;8.88;;;3.90;;
40459;SDS011;26164;51.138;16.952;2023-05-01T11:51:15;9.20;;;3.97;;
40459;SDS011;26164;51.138;16.952;2023-05-01T11:53:40;8.88;;;4.18;;
40459;SDS011;26164;51.138;16.952;2023-05-01T11:56:20;15.48;;;3.70;;
40459;SDS011;26164;51.138;16.952;2023-05-01T11:58:46;7.32;;;2.97;;
40459;SDS011;26164;51.138;16.952;2023-05-01T12:01:14;9.32;;;3.97;;
40459;SDS011;26164;51.138;16.952;2023-05-01T12:03:42;9.88;;;3.72;;
40459;SDS011;26164;51.138;16.952;2023-05-01T12:06:10;9.18;;;3.22;;
40459;SDS011;26164;51.138;16.952;2023-05-01T12:08:46;9.30;;;3.40;;
40459;SDS011;26164;51.138;16.952;2023-05-01T12:11:14;9.00;;;3.40;;
40459;SDS011;26164;51.138;16.952;2023-05-01T12:13:39;5.60;;;2.83;;
40459;SDS011;26164;51.138;16.952;2023-05-01T12:16:08;9.13;;;3.10;;
40459;SDS011;26164;51.138;16.952;2023-05-01T12:18:34;6.32;;;3.20;;
40459;SDS011;26164;51.138;16.952;2023-05-01T12:21:01;9.00;;;3.67;;
40459;SDS011;26164;51.138;16.952;2023-05-01T12:23:35;9.93;;;3.60;;
40459;SDS011;26164;51.138;16.952;2023-05-01T12:26:20;9.32;;;3.50;;
40459;SDS011;26164;51.138;16.952;2023-05-01T12:28:56;7.47;;;3.28;;
40459;SDS011;26164;51.138;16.952;2023-05-01T12:31:22;6.97;;;3.45;;
40459;SDS011;26164;51.138;16.952;2023-05-01T12:34:06;6.68;;;3.05;;
40459;SDS011;26164;51.138;16.952;2023-05-01T12:36:33;6.82;;;3.25;;
40459;SDS011;26164;51.138;16.952;2023-05-01T12:39:05;7.60;;;3.40;;
40459;SDS011;26164;51.138;16.952;2023-05-01T12:41:32;7.03;;;3.28;;
40459;SDS011;26164;51.138;16.952;2023-05-01T12:43:59;10.35;;;3.70;;
40459;SDS011;26164;51.138;16.952;2023-05-01T12:46:26;5.07;;;3.10;;
40459;SDS011;26164;51.138;16.952;2023-05-01T12:48:52;18.05;;;4.20;;
40459;SDS011;26164;51.138;16.952;2023-05-01T12:51:21;8.63;;;3.60;;
40459;SDS011;26164;51.138;16.952;2023-05-01T12:53:47;8.48;;;3.47;;
40459;SDS011;26164;51.138;16.952;2023-05-01T12:56:20;8.85;;;3.50;;
40459;SDS011;26164;51.138;16.952;2023-05-01T12:58:50;7.95;;;3.35;;
40459;SDS011;26164;51.138;16.952;2023-05-01T13:01:25;8.20;;;3.85;;
40459;SDS011;26164;51.138;16.952;2023-05-01T13:03:51;9.85;;;3.47;;
40459;SDS011;26164;51.138;16.952;2023-05-01T13:06:17;8.52;;;3.45;;
40459;SDS011;26164;51.138;16.952;2023-05-01T13:08:48;7.63;;;2.67;;
40459;SDS011;26164;51.138;16.952;2023-05-01T13:11:15;6.55;;;3.20;;
40459;SDS011;26164;51.138;16.952;2023-05-01T13:13:42;7.55;;;4.03;;
40459;SDS011;26164;51.138;16.952;2023-05-01T13:21:09;8.52;;;3.28;;
40459;SDS011;26164;51.138;16.952;2023-05-01T13:23:39;9.40;;;3.60;;
40459;SDS011;26164;51.138;16.952;2023-05-01T13:26:05;7.07;;;3.58;;
40459;SDS011;26164;51.138;16.952;2023-05-01T13:28:32;10.02;;;5.00;;
40459;SDS011;26164;51.138;16.952;2023-05-01T13:30:59;7.82;;;3.38;;
40459;SDS011;26164;51.138;16.952;2023-05-01T13:33:25;7.80;;;3.45;;
40459;SDS011;26164;51.138;16.952;2023-05-01T13:35:55;7.47;;;3.92;;
40459;SDS011;26164;51.138;16.952;2023-05-01T13:38:28;8.77;;;3.30;;
40459;SDS011;26164;51.138;16.952;2023-05-01T13:40:55;11.30;;;3.33;;
40459;SDS011;26164;51.138;16.952;2023-05-01T13:43:21;6.30;;;3.80;;
40459;SDS011;26164;51.138;16.952;2023-05-01T13:45:50;10.07;;;4.00;;
40459;SDS011;26164;51.138;16.952;2023-05-01T13:48:15;8.10;;;3.55;;
40459;SDS011;26164;51.138;16.952;2023-05-01T13:50:42;12.15;;;5.65;;
40459;SDS011;26164;51.138;16.952;2023-05-01T13:53:07;12.00;;;5.18;;
40459;SDS011;26164;51.138;16.952;2023-05-01T13:55:34;10.50;;;4.32;;
40459;SDS011;26164;51.138;16.952;2023-05-01T13:57:59;9.35;;;3.78;;
40459;SDS011;26164;51.138;16.952;2023-05-01T14:00:25;6.25;;;3.50;;
40459;SDS011;26164;51.138;16.952;2023-05-01T14:02:51;7.93;;;3.45;;
40459;SDS011;26164;51.138;16.952;2023-05-01T14:05:22;9.93;;;3.88;;
40459;SDS011;26164;51.138;16.952;2023-05-01T14:07:57;9.18;;;4.13;;
40459;SDS011;26164;51.138;16.952;2023-05-01T14:10:25;5.85;;;3.67;;
40459;SDS011;26164;51.138;16.952;2023-05-01T14:12:53;9.02;;;3.78;;
40459;SDS011;26164;51.138;16.952;2023-05-01T14:15:19;6.90;;;3.70;;
40459;SDS011;26164;51.138;16.952;2023-05-01T14:17:45;9.90;;;3.58;;
40459;SDS011;26164;51.138;16.952;2023-05-01T14:20:11;6.55;;;3.80;;
40459;SDS011;26164;51.138;16.952;2023-05-01T14:22:46;11.05;;;3.60;;
40459;SDS011;26164;51.138;16.952;2023-05-01T14:25:20;5.85;;;3.17;;
40459;SDS011;26164;51.138;16.952;2023-05-01T14:27:47;9.77;;;3.88;;
40459;SDS011;26164;51.138;16.952;2023-05-01T14:30:35;7.53;;;3.45;;
40459;SDS011;26164;51.138;16.952;2023-05-01T14:33:05;7.28;;;3.10;;
40459;SDS011;26164;51.138;16.952;2023-05-01T14:35:32;12.32;;;2.90;;
40459;SDS011;26164;51.138;16.952;2023-05-01T14:38:03;5.93;;;2.85;;
40459;SDS011;26164;51.138;16.952;2023-05-01T14:40:31;6.60;;;2.42;;
40459;SDS011;26164;51.138;16.952;2023-05-01T14:42:58;5.68;;;2.10;;
40459;SDS011;26164;51.138;16.952;2023-05-01T14:45:25;4.90;;;1.98;;
40459;SDS011;26164;51.138;16.952;2023-05-01T14:47:50;9.45;;;2.80;;
40459;SDS011;26164;51.138;16.952;2023-05-01T14:50:20;8.70;;;3.38;;
40459;SDS011;26164;51.138;16.952;2023-05-01T14:52:46;7.72;;;2.90;;
40459;SDS011;26164;51.138;16.952;2023-05-01T14:55:13;5.68;;;2.67;;
40459;SDS011;26164;51.138;16.952;2023-05-01T14:57:41;7.80;;;3.00;;